sensor_id;sensor_type;location;lat;lon;timestamp;P1;durP1;ratioP1;P2;durP2;ratioP2
56183;SDS011;42086;53.170;6.980;2022-07-04T00:00:52;6.22;;;3.55;;
56183;SDS011;42086;53.170;6.980;2022-07-04T00:03:18;5.13;;;4.05;;
56183;SDS011;42086;53.170;6.980;2022-07-04T00:05:44;5.82;;;4.38;;
56183;SDS011;42086;53.170;6.980;2022-07-04T00:08:09;9.95;;;4.57;;
56183;SDS011;42086;53.170;6.980;2022-07-04T00:10:35;8.50;;;4.55;;
56183;SDS011;42086;53.170;6.980;2022-07-04T00:13:01;8.73;;;4.38;;
56183;SDS011;42086;53.170;6.980;2022-07-04T00:15:27;9.02;;;4.35;;
56183;SDS011;42086;53.170;6.980;2022-07-04T00:17:52;7.32;;;4.07;;
56183;SDS011;42086;53.170;6.980;2022-07-04T00:20:18;9.77;;;4.45;;
56183;SDS011;42086;53.170;6.980;2022-07-04T00:22:44;6.20;;;4.20;;
56183;SDS011;42086;53.170;6.980;2022-07-04T00:25:10;7.93;;;4.32;;
56183;SDS011;42086;53.170;6.980;2022-07-04T00:27:36;7.90;;;4.75;;
56183;SDS011;42086;53.170;6.980;2022-07-04T00:30:02;7.55;;;4.50;;
56183;SDS011;42086;53.170;6.980;2022-07-04T00:32:29;9.93;;;4.78;;
56183;SDS011;42086;53.170;6.980;2022-07-04T00:34:55;7.55;;;4.45;;
56183;SDS011;42086;53.170;6.980;2022-07-04T00:37:21;9.60;;;4.78;;
56183;SDS011;42086;53.170;6.980;2022-07-04T00:39:46;7.00;;;4.80;;
56183;SDS011;42086;53.170;6.980;2022-07-04T00:42:12;6.47;;;4.40;;
56183;SDS011;42086;53.170;6.980;2022-07-04T00:44:38;9.10;;;4.53;;
56183;SDS011;42086;53.170;6.980;2022-07-04T00:47:04;9.77;;;4.95;;
56183;SDS011;42086;53.170;6.980;2022-07-04T00:49:31;8.43;;;5.20;;
56183;SDS011;42086;53.170;6.980;2022-07-04T00:51:57;7.90;;;4.70;;
56183;SDS011;42086;53.170;6.980;2022-07-04T00:54:25;7.53;;;4.50;;
56183;SDS011;42086;53.170;6.980;2022-07-04T00:56:52;7.85;;;4.60;;
56183;SDS011;42086;53.170;6.980;2022-07-04T00:59:19;6.28;;;4.60;;
56183;SDS011;42086;53.170;6.980;2022-07-04T01:01:45;8.18;;;4.90;;
56183;SDS011;42086;53.170;6.980;2022-07-04T01:04:11;7.93;;;4.47;;
56183;SDS011;42086;53.170;6.980;2022-07-04T01:06:37;9.73;;;4.65;;
56183;SDS011;42086;53.170;6.980;2022-07-04T01:09:03;6.60;;;4.55;;
56183;SDS011;42086;53.170;6.980;2022-07-04T01:11:30;6.88;;;5.10;;
56183;SDS011;42086;53.170;6.980;2022-07-04T01:13:56;7.53;;;4.72;;
56183;SDS011;42086;53.170;6.980;2022-07-04T01:16:26;9.38;;;5.38;;
56183;SDS011;42086;53.170;6.980;2022-07-04T01:18:53;7.18;;;5.15;;
56183;SDS011;42086;53.170;6.980;2022-07-04T01:21:19;10.40;;;5.43;;
56183;SDS011;42086;53.170;6.980;2022-07-04T01:23:45;9.15;;;5.55;;
56183;SDS011;42086;53.170;6.980;2022-07-04T01:26:11;10.00;;;4.95;;
56183;SDS011;42086;53.170;6.980;2022-07-04T01:28:37;8.05;;;5.60;;
56183;SDS011;42086;53.170;6.980;2022-07-04T01:31:03;10.65;;;5.95;;
56183;SDS011;42086;53.170;6.980;2022-07-04T01:33:29;10.20;;;5.93;;
56183;SDS011;42086;53.170;6.980;2022-07-04T01:35:55;8.90;;;5.40;;
56183;SDS011;42086;53.170;6.980;2022-07-04T01:38:21;9.50;;;5.72;;
56183;SDS011;42086;53.170;6.980;2022-07-04T01:40:47;12.07;;;6.00;;
56183;SDS011;42086;53.170;6.980;2022-07-04T01:43:12;9.52;;;5.30;;
56183;SDS011;42086;53.170;6.980;2022-07-04T01:45:38;10.25;;;5.20;;
56183;SDS011;42086;53.170;6.980;2022-07-04T01:50:30;9.95;;;5.43;;
56183;SDS011;42086;53.170;6.980;2022-07-04T01:52:55;8.18;;;5.18;;
56183;SDS011;42086;53.170;6.980;2022-07-04T01:55:21;8.02;;;5.72;;
56183;SDS011;42086;53.170;6.980;2022-07-04T01:57:47;9.68;;;5.65;;
56183;SDS011;42086;53.170;6.980;2022-07-04T02:00:13;12.05;;;6.20;;
56183;SDS011;42086;53.170;6.980;2022-07-04T02:02:57;10.77;;;5.47;;
56183;SDS011;42086;53.170;6.980;2022-07-04T02:05:23;8.38;;;5.18;;
56183;SDS011;42086;53.170;6.980;2022-07-04T02:07:48;8.60;;;4.85;;
56183;SDS011;42086;53.170;6.980;2022-07-04T02:10:14;8.43;;;4.90;;
56183;SDS011;42086;53.170;6.980;2022-07-04T02:12:40;11.63;;;5.35;;
56183;SDS011;42086;53.170;6.980;2022-07-04T02:15:25;10.15;;;5.13;;
56183;SDS011;42086;53.170;6.980;2022-07-04T02:17:51;9.02;;;4.57;;
56183;SDS011;42086;53.170;6.980;2022-07-04T02:20:16;8.45;;;5.00;;
56183;SDS011;42086;53.170;6.980;2022-07-04T02:22:43;9.38;;;5.07;;
56183;SDS011;42086;53.170;6.980;2022-07-04T02:25:08;7.50;;;4.50;;
56183;SDS011;42086;53.170;6.980;2022-07-04T02:27:36;11.18;;;4.88;;
56183;SDS011;42086;53.170;6.980;2022-07-04T02:30:03;9.20;;;5.28;;
56183;SDS011;42086;53.170;6.980;2022-07-04T02:32:29;7.93;;;4.60;;
56183;SDS011;42086;53.170;6.980;2022-07-04T02:34:55;6.57;;;5.13;;
56183;SDS011;42086;53.170;6.980;2022-07-04T02:37:20;8.52;;;4.63;;
56183;SDS011;42086;53.170;6.980;2022-07-04T02:39:46;11.18;;;4.90;;
56183;SDS011;42086;53.170;6.980;2022-07-04T02:42:12;11.18;;;5.13;;
56183;SDS011;42086;53.170;6.980;2022-07-04T02:44:38;11.07;;;5.30;;
56183;SDS011;42086;53.170;6.980;2022-07-04T02:47:03;9.50;;;5.70;;
56183;SDS011;42086;53.170;6.980;2022-07-04T02:49:29;16.20;;;6.03;;
56183;SDS011;42086;53.170;6.980;2022-07-04T02:51:55;10.40;;;6.32;;
56183;SDS011;42086;53.170;6.980;2022-07-04T02:54:21;16.10;;;6.93;;
56183;SDS011;42086;53.170;6.980;2022-07-04T02:56:46;14.82;;;7.60;;
56183;SDS011;42086;53.170;6.980;2022-07-04T02:59:12;15.07;;;7.60;;
56183;SDS011;42086;53.170;6.980;2022-07-04T03:01:38;12.27;;;6.80;;
56183;SDS011;42086;53.170;6.980;2022-07-04T03:04:04;15.57;;;7.55;;
56183;SDS011;42086;53.170;6.980;2022-07-04T03:06:29;12.80;;;7.05;;
56183;SDS011;42086;53.170;6.980;2022-07-04T03:08:55;14.50;;;7.97;;
56183;SDS011;42086;53.170;6.980;2022-07-04T03:11:21;11.10;;;7.88;;
56183;SDS011;42086;53.170;6.980;2022-07-04T03:13:46;17.48;;;8.93;;
56183;SDS011;42086;53.170;6.980;2022-07-04T03:16:12;16.10;;;9.55;;
56183;SDS011;42086;53.170;6.980;2022-07-04T03:18:38;16.80;;;9.43;;
56183;SDS011;42086;53.170;6.980;2022-07-04T03:21:04;15.98;;;9.55;;
56183;SDS011;42086;53.170;6.980;2022-07-04T03:23:31;15.82;;;9.15;;
56183;SDS011;42086;53.170;6.980;2022-07-04T03:25:57;13.45;;;8.45;;
56183;SDS011;42086;53.170;6.980;2022-07-04T03:28:23;13.02;;;8.73;;
56183;SDS011;42086;53.170;6.980;2022-07-04T03:30:48;13.70;;;8.25;;
56183;SDS011;42086;53.170;6.980;2022-07-04T03:33:15;16.63;;;8.02;;
56183;SDS011;42086;53.170;6.980;2022-07-04T03:35:40;14.55;;;7.95;;
56183;SDS011;42086;53.170;6.980;2022-07-04T03:38:06;16.55;;;8.45;;
56183;SDS011;42086;53.170;6.980;2022-07-04T03:40:32;15.23;;;8.20;;
56183;SDS011;42086;53.170;6.980;2022-07-04T03:43:00;14.15;;;9.00;;
56183;SDS011;42086;53.170;6.980;2022-07-04T03:45:26;15.23;;;8.82;;
56183;SDS011;42086;53.170;6.980;2022-07-04T03:47:52;13.00;;;9.25;;
56183;SDS011;42086;53.170;6.980;2022-07-04T03:50:17;17.25;;;8.57;;
56183;SDS011;42086;53.170;6.980;2022-07-04T03:52:43;18.40;;;9.20;;
56183;SDS011;42086;53.170;6.980;2022-07-04T03:55:09;16.42;;;8.63;;
56183;SDS011;42086;53.170;6.980;2022-07-04T03:57:35;13.88;;;8.07;;
56183;SDS011;42086;53.170;6.980;2022-07-04T04:00:01;13.65;;;8.07;;
56183;SDS011;42086;53.170;6.980;2022-07-04T04:02:28;14.93;;;8.85;;
56183;SDS011;42086;53.170;6.980;2022-07-04T04:04:54;19.60;;;9.25;;
56183;SDS011;42086;53.170;6.980;2022-07-04T04:07:38;12.77;;;9.15;;
56183;SDS011;42086;53.170;6.980;2022-07-04T04:10:04;20.33;;;9.63;;
56183;SDS011;42086;53.170;6.980;2022-07-04T04:12:30;19.15;;;9.18;;
56183;SDS011;42086;53.170;6.980;2022-07-04T04:14:56;15.07;;;9.90;;
56183;SDS011;42086;53.170;6.980;2022-07-04T04:17:22;19.40;;;9.85;;
56183;SDS011;42086;53.170;6.980;2022-07-04T04:19:47;16.38;;;10.10;;
56183;SDS011;42086;53.170;6.980;2022-07-04T04:22:13;24.63;;;9.82;;
56183;SDS011;42086;53.170;6.980;2022-07-04T04:24:39;21.75;;;10.52;;
56183;SDS011;42086;53.170;6.980;2022-07-04T04:27:04;20.98;;;11.18;;
56183;SDS011;42086;53.170;6.980;2022-07-04T04:29:31;19.88;;;11.25;;
56183;SDS011;42086;53.170;6.980;2022-07-04T04:31:56;18.05;;;10.38;;
56183;SDS011;42086;53.170;6.980;2022-07-04T04:34:22;18.55;;;10.50;;
56183;SDS011;42086;53.170;6.980;2022-07-04T04:36:48;17.98;;;10.60;;
56183;SDS011;42086;53.170;6.980;2022-07-04T04:39:13;19.27;;;10.48;;
56183;SDS011;42086;53.170;6.980;2022-07-04T04:41:39;19.33;;;11.00;;
56183;SDS011;42086;53.170;6.980;2022-07-04T04:44:05;20.10;;;11.48;;
56183;SDS011;42086;53.170;6.980;2022-07-04T04:46:31;15.25;;;9.93;;
56183;SDS011;42086;53.170;6.980;2022-07-04T04:48:57;18.88;;;11.40;;
56183;SDS011;42086;53.170;6.980;2022-07-04T04:51:23;17.55;;;10.73;;
56183;SDS011;42086;53.170;6.980;2022-07-04T04:53:49;16.23;;;10.07;;
56183;SDS011;42086;53.170;6.980;2022-07-04T04:56:14;19.02;;;10.88;;
56183;SDS011;42086;53.170;6.980;2022-07-04T04:58:40;17.90;;;10.48;;
56183;SDS011;42086;53.170;6.980;2022-07-04T05:01:06;17.02;;;10.38;;
56183;SDS011;42086;53.170;6.980;2022-07-04T05:03:31;14.50;;;10.65;;
56183;SDS011;42086;53.170;6.980;2022-07-04T05:05:57;16.67;;;11.07;;
56183;SDS011;42086;53.170;6.980;2022-07-04T05:08:23;12.73;;;9.82;;
56183;SDS011;42086;53.170;6.980;2022-07-04T05:10:52;18.70;;;10.85;;
56183;SDS011;42086;53.170;6.980;2022-07-04T05:13:18;17.23;;;9.60;;
56183;SDS011;42086;53.170;6.980;2022-07-04T05:15:45;14.30;;;10.30;;
56183;SDS011;42086;53.170;6.980;2022-07-04T05:18:11;15.63;;;10.80;;
56183;SDS011;42086;53.170;6.980;2022-07-04T05:20:38;16.63;;;10.52;;
56183;SDS011;42086;53.170;6.980;2022-07-04T05:23:04;15.95;;;10.77;;
56183;SDS011;42086;53.170;6.980;2022-07-04T05:25:31;21.80;;;10.98;;
56183;SDS011;42086;53.170;6.980;2022-07-04T05:27:57;16.30;;;11.35;;
56183;SDS011;42086;53.170;6.980;2022-07-04T05:30:23;15.85;;;11.18;;
56183;SDS011;42086;53.170;6.980;2022-07-04T05:32:49;16.98;;;11.45;;
56183;SDS011;42086;53.170;6.980;2022-07-04T05:35:14;20.58;;;11.70;;
56183;SDS011;42086;53.170;6.980;2022-07-04T05:37:40;16.75;;;11.18;;
56183;SDS011;42086;53.170;6.980;2022-07-04T05:40:06;19.30;;;11.38;;
56183;SDS011;42086;53.170;6.980;2022-07-04T05:42:33;13.55;;;10.82;;
56183;SDS011;42086;53.170;6.980;2022-07-04T05:44:59;14.27;;;10.77;;
56183;SDS011;42086;53.170;6.980;2022-07-04T05:47:25;14.00;;;10.68;;
56183;SDS011;42086;53.170;6.980;2022-07-04T05:49:52;17.58;;;11.68;;
56183;SDS011;42086;53.170;6.980;2022-07-04T05:52:17;15.98;;;11.30;;
56183;SDS011;42086;53.170;6.980;2022-07-04T05:54:43;15.75;;;11.90;;
56183;SDS011;42086;53.170;6.980;2022-07-04T05:57:09;16.23;;;11.43;;
56183;SDS011;42086;53.170;6.980;2022-07-04T05:59:35;17.83;;;12.25;;
56183;SDS011;42086;53.170;6.980;2022-07-04T06:02:01;15.80;;;11.13;;
56183;SDS011;42086;53.170;6.980;2022-07-04T06:04:27;16.73;;;11.20;;
56183;SDS011;42086;53.170;6.980;2022-07-04T06:06:53;14.68;;;9.98;;
56183;SDS011;42086;53.170;6.980;2022-07-04T06:09:18;21.42;;;12.00;;
56183;SDS011;42086;53.170;6.980;2022-07-04T06:11:44;17.08;;;11.00;;
56183;SDS011;42086;53.170;6.980;2022-07-04T06:14:10;18.42;;;11.43;;
56183;SDS011;42086;53.170;6.980;2022-07-04T06:16:35;15.65;;;9.75;;
56183;SDS011;42086;53.170;6.980;2022-07-04T06:19:01;12.13;;;9.13;;
56183;SDS011;42086;53.170;6.980;2022-07-04T06:21:27;17.45;;;10.25;;
56183;SDS011;42086;53.170;6.980;2022-07-04T06:23:53;15.85;;;9.52;;
56183;SDS011;42086;53.170;6.980;2022-07-04T06:26:19;14.50;;;9.20;;
56183;SDS011;42086;53.170;6.980;2022-07-04T06:28:45;12.07;;;9.02;;
56183;SDS011;42086;53.170;6.980;2022-07-04T06:31:11;17.35;;;9.25;;
56183;SDS011;42086;53.170;6.980;2022-07-04T06:33:37;11.30;;;8.02;;
56183;SDS011;42086;53.170;6.980;2022-07-04T06:36:22;15.32;;;7.95;;
56183;SDS011;42086;53.170;6.980;2022-07-04T06:38:47;16.05;;;9.05;;
56183;SDS011;42086;53.170;6.980;2022-07-04T06:41:13;14.35;;;7.85;;
56183;SDS011;42086;53.170;6.980;2022-07-04T06:43:39;15.20;;;7.38;;
56183;SDS011;42086;53.170;6.980;2022-07-04T06:46:05;16.05;;;7.65;;
56183;SDS011;42086;53.170;6.980;2022-07-04T06:48:31;13.95;;;7.50;;
56183;SDS011;42086;53.170;6.980;2022-07-04T06:50:57;10.52;;;6.28;;
56183;SDS011;42086;53.170;6.980;2022-07-04T06:53:23;10.00;;;5.68;;
56183;SDS011;42086;53.170;6.980;2022-07-04T06:55:49;11.70;;;5.60;;
56183;SDS011;42086;53.170;6.980;2022-07-04T06:58:15;11.32;;;5.50;;
56183;SDS011;42086;53.170;6.980;2022-07-04T07:00:41;10.65;;;5.32;;
56183;SDS011;42086;53.170;6.980;2022-07-04T07:03:07;11.70;;;5.40;;
56183;SDS011;42086;53.170;6.980;2022-07-04T07:05:33;11.02;;;5.15;;
56183;SDS011;42086;53.170;6.980;2022-07-04T07:08:02;9.65;;;4.40;;
56183;SDS011;42086;53.170;6.980;2022-07-04T07:10:29;10.15;;;4.90;;
56183;SDS011;42086;53.170;6.980;2022-07-04T07:12:57;9.65;;;4.68;;
56183;SDS011;42086;53.170;6.980;2022-07-04T07:15:23;8.18;;;4.45;;
56183;SDS011;42086;53.170;6.980;2022-07-04T07:17:49;8.38;;;4.15;;
56183;SDS011;42086;53.170;6.980;2022-07-04T07:20:15;6.40;;;3.85;;
56183;SDS011;42086;53.170;6.980;2022-07-04T07:22:41;4.95;;;3.70;;
56183;SDS011;42086;53.170;6.980;2022-07-04T07:25:08;8.52;;;3.90;;
56183;SDS011;42086;53.170;6.980;2022-07-04T07:27:35;7.28;;;4.20;;
56183;SDS011;42086;53.170;6.980;2022-07-04T07:30:01;7.93;;;3.63;;
56183;SDS011;42086;53.170;6.980;2022-07-04T07:32:28;6.55;;;3.95;;
56183;SDS011;42086;53.170;6.980;2022-07-04T07:34:54;6.25;;;3.65;;
56183;SDS011;42086;53.170;6.980;2022-07-04T07:37:19;11.15;;;4.20;;
56183;SDS011;42086;53.170;6.980;2022-07-04T07:39:47;6.28;;;3.50;;
56183;SDS011;42086;53.170;6.980;2022-07-04T07:42:13;6.90;;;3.40;;
56183;SDS011;42086;53.170;6.980;2022-07-04T07:44:39;10.30;;;3.55;;
56183;SDS011;42086;53.170;6.980;2022-07-04T07:47:05;7.03;;;3.50;;
56183;SDS011;42086;53.170;6.980;2022-07-04T07:49:31;7.50;;;3.17;;
56183;SDS011;42086;53.170;6.980;2022-07-04T07:51:57;9.70;;;3.72;;
56183;SDS011;42086;53.170;6.980;2022-07-04T07:54:23;7.97;;;3.58;;
56183;SDS011;42086;53.170;6.980;2022-07-04T07:56:49;9.60;;;3.70;;
56183;SDS011;42086;53.170;6.980;2022-07-04T07:59:14;8.13;;;3.70;;
56183;SDS011;42086;53.170;6.980;2022-07-04T08:01:40;7.97;;;3.80;;
56183;SDS011;42086;53.170;6.980;2022-07-04T08:04:06;9.77;;;4.10;;
56183;SDS011;42086;53.170;6.980;2022-07-04T08:06:50;14.02;;;4.65;;
56183;SDS011;42086;53.170;6.980;2022-07-04T08:09:16;8.05;;;3.30;;
56183;SDS011;42086;53.170;6.980;2022-07-04T08:11:42;6.32;;;3.35;;
56183;SDS011;42086;53.170;6.980;2022-07-04T08:14:07;7.80;;;3.50;;
56183;SDS011;42086;53.170;6.980;2022-07-04T08:16:33;7.13;;;3.33;;
56183;SDS011;42086;53.170;6.980;2022-07-04T08:19:00;8.95;;;4.05;;
56183;SDS011;42086;53.170;6.980;2022-07-04T08:21:26;7.20;;;3.20;;
56183;SDS011;42086;53.170;6.980;2022-07-04T08:23:52;8.10;;;3.38;;
56183;SDS011;42086;53.170;6.980;2022-07-04T08:26:18;6.15;;;2.95;;
56183;SDS011;42086;53.170;6.980;2022-07-04T08:28:44;6.75;;;2.88;;
56183;SDS011;42086;53.170;6.980;2022-07-04T08:31:10;4.85;;;2.28;;
56183;SDS011;42086;53.170;6.980;2022-07-04T08:33:36;7.63;;;2.70;;
56183;SDS011;42086;53.170;6.980;2022-07-04T08:36:02;6.13;;;2.60;;
56183;SDS011;42086;53.170;6.980;2022-07-04T08:38:29;4.60;;;1.98;;
56183;SDS011;42086;53.170;6.980;2022-07-04T08:40:58;5.40;;;1.95;;
56183;SDS011;42086;53.170;6.980;2022-07-04T08:43:27;5.25;;;2.55;;
56183;SDS011;42086;53.170;6.980;2022-07-04T08:45:59;5.40;;;2.03;;
56183;SDS011;42086;53.170;6.980;2022-07-04T08:48:25;4.28;;;1.80;;
56183;SDS011;42086;53.170;6.980;2022-07-04T08:50:57;7.80;;;2.45;;
56183;SDS011;42086;53.170;6.980;2022-07-04T08:53:34;5.45;;;2.30;;
56183;SDS011;42086;53.170;6.980;2022-07-04T08:56:04;6.07;;;2.50;;
56183;SDS011;42086;53.170;6.980;2022-07-04T08:58:50;7.15;;;2.97;;
56183;SDS011;42086;53.170;6.980;2022-07-04T09:01:16;6.32;;;2.60;;
56183;SDS011;42086;53.170;6.980;2022-07-04T09:03:43;5.07;;;2.60;;
56183;SDS011;42086;53.170;6.980;2022-07-04T09:06:10;3.20;;;2.30;;
56183;SDS011;42086;53.170;6.980;2022-07-04T09:08:37;5.38;;;2.88;;
56183;SDS011;42086;53.170;6.980;2022-07-04T09:11:04;8.25;;;3.33;;
56183;SDS011;42086;53.170;6.980;2022-07-04T09:13:30;7.28;;;2.60;;
56183;SDS011;42086;53.170;6.980;2022-07-04T09:15:56;6.03;;;2.33;;
56183;SDS011;42086;53.170;6.980;2022-07-04T09:18:23;8.20;;;2.40;;
56183;SDS011;42086;53.170;6.980;2022-07-04T09:20:52;6.38;;;2.03;;
56183;SDS011;42086;53.170;6.980;2022-07-04T09:23:19;14.77;;;3.47;;
56183;SDS011;42086;53.170;6.980;2022-07-04T09:28:34;6.80;;;2.35;;
56183;SDS011;42086;53.170;6.980;2022-07-04T09:31:00;6.28;;;2.38;;
56183;SDS011;42086;53.170;6.980;2022-07-04T09:33:49;6.22;;;2.70;;
56183;SDS011;42086;53.170;6.980;2022-07-04T09:36:18;3.15;;;2.03;;
56183;SDS011;42086;53.170;6.980;2022-07-04T09:38:46;5.25;;;2.55;;
56183;SDS011;42086;53.170;6.980;2022-07-04T09:41:30;5.18;;;3.00;;
56183;SDS011;42086;53.170;6.980;2022-07-04T09:44:00;4.25;;;2.90;;
56183;SDS011;42086;53.170;6.980;2022-07-04T09:46:31;5.00;;;2.97;;
56183;SDS011;42086;53.170;6.980;2022-07-04T09:48:58;6.45;;;2.63;;
56183;SDS011;42086;53.170;6.980;2022-07-04T09:56:58;3.10;;;1.70;;
56183;SDS011;42086;53.170;6.980;2022-07-04T09:59:26;2.92;;;1.90;;
56183;SDS011;42086;53.170;6.980;2022-07-04T10:02:05;2.63;;;1.70;;
56183;SDS011;42086;53.170;6.980;2022-07-04T10:04:42;5.18;;;2.25;;
56183;SDS011;42086;53.170;6.980;2022-07-04T10:07:39;3.38;;;2.10;;
56183;SDS011;42086;53.170;6.980;2022-07-04T10:12:58;5.25;;;2.25;;
56183;SDS011;42086;53.170;6.980;2022-07-04T10:15:37;3.22;;;2.15;;
56183;SDS011;42086;53.170;6.980;2022-07-04T10:18:05;4.75;;;2.33;;
56183;SDS011;42086;53.170;6.980;2022-07-04T10:20:33;3.10;;;2.15;;
56183;SDS011;42086;53.170;6.980;2022-07-04T10:22:59;2.90;;;2.13;;
56183;SDS011;42086;53.170;6.980;2022-07-04T10:25:25;2.35;;;1.80;;
56183;SDS011;42086;53.170;6.980;2022-07-04T10:27:51;2.03;;;1.60;;
56183;SDS011;42086;53.170;6.980;2022-07-04T10:30:21;3.17;;;1.73;;
56183;SDS011;42086;53.170;6.980;2022-07-04T10:32:57;3.45;;;1.77;;
56183;SDS011;42086;53.170;6.980;2022-07-04T10:38:58;3.05;;;1.90;;
56183;SDS011;42086;53.170;6.980;2022-07-04T10:41:29;1.77;;;1.67;;
56183;SDS011;42086;53.170;6.980;2022-07-04T10:46:29;1.77;;;1.58;;
56183;SDS011;42086;53.170;6.980;2022-07-04T10:51:45;3.67;;;1.88;;
56183;SDS011;42086;53.170;6.980;2022-07-04T10:54:11;3.40;;;1.70;;
56183;SDS011;42086;53.170;6.980;2022-07-04T10:56:45;3.35;;;1.60;;
56183;SDS011;42086;53.170;6.980;2022-07-04T11:01:45;2.50;;;1.60;;
56183;SDS011;42086;53.170;6.980;2022-07-04T11:07:11;4.35;;;1.60;;
56183;SDS011;42086;53.170;6.980;2022-07-04T11:09:36;2.63;;;1.55;;
56183;SDS011;42086;53.170;6.980;2022-07-04T11:12:03;3.42;;;1.52;;
56183;SDS011;42086;53.170;6.980;2022-07-04T11:14:35;3.08;;;1.60;;
56183;SDS011;42086;53.170;6.980;2022-07-04T11:17:04;4.35;;;1.98;;
56183;SDS011;42086;53.170;6.980;2022-07-04T11:19:31;4.80;;;1.83;;
56183;SDS011;42086;53.170;6.980;2022-07-04T11:21:58;4.88;;;1.75;;
56183;SDS011;42086;53.170;6.980;2022-07-04T11:24:24;3.63;;;1.42;;
56183;SDS011;42086;53.170;6.980;2022-07-04T11:26:51;3.50;;;1.77;;
56183;SDS011;42086;53.170;6.980;2022-07-04T11:29:16;3.28;;;1.55;;
56183;SDS011;42086;53.170;6.980;2022-07-04T11:31:47;2.33;;;1.60;;
56183;SDS011;42086;53.170;6.980;2022-07-04T11:34:14;3.78;;;1.52;;
56183;SDS011;42086;53.170;6.980;2022-07-04T11:36:41;3.10;;;1.33;;
56183;SDS011;42086;53.170;6.980;2022-07-04T11:39:09;2.22;;;1.80;;
56183;SDS011;42086;53.170;6.980;2022-07-04T11:41:47;4.65;;;1.90;;
56183;SDS011;42086;53.170;6.980;2022-07-04T11:44:35;5.85;;;1.63;;
56183;SDS011;42086;53.170;6.980;2022-07-04T11:47:39;2.75;;;1.75;;
56183;SDS011;42086;53.170;6.980;2022-07-04T11:55:03;2.38;;;1.45;;
56183;SDS011;42086;53.170;6.980;2022-07-04T11:57:34;2.72;;;1.70;;
56183;SDS011;42086;53.170;6.980;2022-07-04T12:00:06;3.00;;;1.50;;
56183;SDS011;42086;53.170;6.980;2022-07-04T12:02:32;2.72;;;1.60;;
56183;SDS011;42086;53.170;6.980;2022-07-04T12:04:58;2.80;;;1.63;;
56183;SDS011;42086;53.170;6.980;2022-07-04T12:07:26;3.20;;;1.60;;
56183;SDS011;42086;53.170;6.980;2022-07-04T12:09:54;2.90;;;1.77;;
56183;SDS011;42086;53.170;6.980;2022-07-04T12:12:20;3.35;;;1.48;;
56183;SDS011;42086;53.170;6.980;2022-07-04T12:17:42;3.42;;;1.40;;
56183;SDS011;42086;53.170;6.980;2022-07-04T12:23:01;3.10;;;1.58;;
56183;SDS011;42086;53.170;6.980;2022-07-04T12:25:35;2.33;;;1.10;;
56183;SDS011;42086;53.170;6.980;2022-07-04T12:28:05;2.08;;;1.20;;
56183;SDS011;42086;53.170;6.980;2022-07-04T12:30:54;3.38;;;1.30;;
56183;SDS011;42086;53.170;6.980;2022-07-04T12:33:25;3.40;;;1.35;;
56183;SDS011;42086;53.170;6.980;2022-07-04T12:35:57;2.70;;;1.40;;
56183;SDS011;42086;53.170;6.980;2022-07-04T12:48:50;2.63;;;1.02;;
56183;SDS011;42086;53.170;6.980;2022-07-04T12:57:18;1.67;;;1.10;;
56183;SDS011;42086;53.170;6.980;2022-07-04T12:59:44;2.67;;;1.05;;
56183;SDS011;42086;53.170;6.980;2022-07-04T13:02:10;2.58;;;1.20;;
56183;SDS011;42086;53.170;6.980;2022-07-04T13:04:37;2.83;;;0.98;;
56183;SDS011;42086;53.170;6.980;2022-07-04T13:07:13;2.33;;;0.90;;
56183;SDS011;42086;53.170;6.980;2022-07-04T13:09:44;2.53;;;1.20;;
56183;SDS011;42086;53.170;6.980;2022-07-04T13:12:11;1.20;;;0.80;;
56183;SDS011;42086;53.170;6.980;2022-07-04T13:14:51;3.05;;;1.00;;
56183;SDS011;42086;53.170;6.980;2022-07-04T13:17:18;2.33;;;1.20;;
56183;SDS011;42086;53.170;6.980;2022-07-04T13:19:44;5.15;;;1.35;;
56183;SDS011;42086;53.170;6.980;2022-07-04T13:22:10;2.95;;;1.25;;
56183;SDS011;42086;53.170;6.980;2022-07-04T13:24:37;4.47;;;1.08;;
56183;SDS011;42086;53.170;6.980;2022-07-04T13:27:02;2.38;;;1.00;;
56183;SDS011;42086;53.170;6.980;2022-07-04T13:29:29;1.35;;;0.82;;
56183;SDS011;42086;53.170;6.980;2022-07-04T13:31:54;7.90;;;1.23;;
56183;SDS011;42086;53.170;6.980;2022-07-04T13:34:20;2.42;;;0.95;;
56183;SDS011;42086;53.170;6.980;2022-07-04T13:36:46;2.00;;;0.95;;
56183;SDS011;42086;53.170;6.980;2022-07-04T13:39:11;2.47;;;0.90;;
56183;SDS011;42086;53.170;6.980;2022-07-04T13:41:38;4.15;;;1.05;;
56183;SDS011;42086;53.170;6.980;2022-07-04T13:44:04;2.38;;;1.00;;
56183;SDS011;42086;53.170;6.980;2022-07-04T13:46:31;1.45;;;1.10;;
56183;SDS011;42086;53.170;6.980;2022-07-04T13:49:04;1.80;;;1.00;;
56183;SDS011;42086;53.170;6.980;2022-07-04T13:51:30;2.08;;;1.20;;
56183;SDS011;42086;53.170;6.980;2022-07-04T13:53:56;3.05;;;1.30;;
56183;SDS011;42086;53.170;6.980;2022-07-04T13:56:21;3.45;;;1.33;;
56183;SDS011;42086;53.170;6.980;2022-07-04T13:58:47;2.47;;;1.02;;
56183;SDS011;42086;53.170;6.980;2022-07-04T14:01:14;3.33;;;0.98;;
56183;SDS011;42086;53.170;6.980;2022-07-04T14:03:42;1.88;;;1.05;;
56183;SDS011;42086;53.170;6.980;2022-07-04T14:06:08;3.15;;;1.10;;
56183;SDS011;42086;53.170;6.980;2022-07-04T14:08:34;3.35;;;1.05;;
56183;SDS011;42086;53.170;6.980;2022-07-04T14:11:00;2.63;;;1.00;;
56183;SDS011;42086;53.170;6.980;2022-07-04T14:13:26;0.93;;;0.90;;
56183;SDS011;42086;53.170;6.980;2022-07-04T14:15:53;3.00;;;1.40;;
56183;SDS011;42086;53.170;6.980;2022-07-04T14:18:19;3.10;;;1.10;;
56183;SDS011;42086;53.170;6.980;2022-07-04T14:20:46;1.60;;;0.90;;
56183;SDS011;42086;53.170;6.980;2022-07-04T14:23:14;1.23;;;1.08;;
56183;SDS011;42086;53.170;6.980;2022-07-04T14:26:00;2.92;;;1.02;;
56183;SDS011;42086;53.170;6.980;2022-07-04T14:28:26;1.77;;;0.90;;
56183;SDS011;42086;53.170;6.980;2022-07-04T14:30:51;1.58;;;1.00;;
56183;SDS011;42086;53.170;6.980;2022-07-04T14:33:17;2.42;;;0.98;;
56183;SDS011;42086;53.170;6.980;2022-07-04T14:35:43;1.63;;;1.02;;
56183;SDS011;42086;53.170;6.980;2022-07-04T14:38:08;1.83;;;0.90;;
56183;SDS011;42086;53.170;6.980;2022-07-04T14:40:34;3.22;;;0.88;;
56183;SDS011;42086;53.170;6.980;2022-07-04T14:43:00;2.05;;;0.80;;
56183;SDS011;42086;53.170;6.980;2022-07-04T14:45:25;1.58;;;0.80;;
56183;SDS011;42086;53.170;6.980;2022-07-04T14:47:51;2.13;;;0.90;;
56183;SDS011;42086;53.170;6.980;2022-07-04T14:50:17;1.38;;;0.90;;
56183;SDS011;42086;53.170;6.980;2022-07-04T14:52:43;1.80;;;0.73;;
56183;SDS011;42086;53.170;6.980;2022-07-04T14:55:08;1.33;;;0.80;;
56183;SDS011;42086;53.170;6.980;2022-07-04T14:57:34;1.63;;;0.80;;
56183;SDS011;42086;53.170;6.980;2022-07-04T15:00:00;1.33;;;0.70;;
56183;SDS011;42086;53.170;6.980;2022-07-04T15:02:26;2.72;;;0.95;;
56183;SDS011;42086;53.170;6.980;2022-07-04T15:04:51;3.35;;;0.90;;
56183;SDS011;42086;53.170;6.980;2022-07-04T15:07:17;1.35;;;0.90;;
56183;SDS011;42086;53.170;6.980;2022-07-04T15:09:43;1.40;;;1.00;;
56183;SDS011;42086;53.170;6.980;2022-07-04T15:12:08;2.58;;;0.82;;
56183;SDS011;42086;53.170;6.980;2022-07-04T15:14:34;3.60;;;0.73;;
56183;SDS011;42086;53.170;6.980;2022-07-04T15:17:00;1.77;;;1.00;;
56183;SDS011;42086;53.170;6.980;2022-07-04T15:19:26;3.25;;;0.95;;
56183;SDS011;42086;53.170;6.980;2022-07-04T15:21:52;1.45;;;0.80;;
56183;SDS011;42086;53.170;6.980;2022-07-04T15:24:36;1.63;;;0.80;;
56183;SDS011;42086;53.170;6.980;2022-07-04T15:27:01;1.55;;;0.85;;
56183;SDS011;42086;53.170;6.980;2022-07-04T15:29:27;2.03;;;0.80;;
56183;SDS011;42086;53.170;6.980;2022-07-04T15:31:53;2.85;;;0.75;;
56183;SDS011;42086;53.170;6.980;2022-07-04T15:34:19;1.98;;;0.90;;
56183;SDS011;42086;53.170;6.980;2022-07-04T15:36:45;2.03;;;0.60;;